Terminal Aerodrome Forecast
Issued by NWS Tallahassee, FL

Home | Current Version | Previous Version | Text Only | Print | Product List | Glossary On
Versions: 1 2 3 4 5 6 7 8 9 10 11 12 13 14 15 16 17 18 19 20 21 22 23 24 25
000
FTUS42 KTAE 022300
TAFTLH
TAF
KTLH 022330Z 0300/0324 04003KT P6SM BKN040 OVC250
     FM030400 00000KT 5SM BR SCT003 BKN100
     FM031000 00000KT 1/2SM FG OVC003
     FM031400 14005KT P6SM OVC007
     FM031600 15006KT P6SM OVC012
     FM031900 17007KT P6SM BKN050=

USA.gov is the U.S. government's official web portal to all federal, state and local government web resources and services.